sensor_id;sensor_type;location;lat;lon;timestamp;P1;durP1;ratioP1;P2;durP2;ratioP2
17398;SDS011;8817;48.170;8.592;2022-09-01T00:01:33;11.27;;;8.35;;
17398;SDS011;8817;48.170;8.592;2022-09-01T00:04:03;13.30;;;8.05;;
17398;SDS011;8817;48.170;8.592;2022-09-01T00:06:31;16.70;;;8.95;;
17398;SDS011;8817;48.170;8.592;2022-09-01T00:09:00;12.98;;;8.38;;
17398;SDS011;8817;48.170;8.592;2022-09-01T00:11:29;16.90;;;8.90;;
17398;SDS011;8817;48.170;8.592;2022-09-01T00:13:57;15.90;;;8.73;;
17398;SDS011;8817;48.170;8.592;2022-09-01T00:16:27;13.68;;;8.52;;
17398;SDS011;8817;48.170;8.592;2022-09-01T00:18:54;16.45;;;9.18;;
17398;SDS011;8817;48.170;8.592;2022-09-01T00:21:23;14.25;;;9.27;;
17398;SDS011;8817;48.170;8.592;2022-09-01T00:23:51;11.77;;;8.02;;
17398;SDS011;8817;48.170;8.592;2022-09-01T00:26:19;14.80;;;8.52;;
17398;SDS011;8817;48.170;8.592;2022-09-01T00:28:46;16.02;;;8.98;;
17398;SDS011;8817;48.170;8.592;2022-09-01T00:31:14;16.73;;;9.00;;
17398;SDS011;8817;48.170;8.592;2022-09-01T00:33:45;15.93;;;9.00;;
17398;SDS011;8817;48.170;8.592;2022-09-01T00:36:12;13.30;;;8.68;;
17398;SDS011;8817;48.170;8.592;2022-09-01T00:38:40;14.80;;;8.60;;
17398;SDS011;8817;48.170;8.592;2022-09-01T00:41:07;14.45;;;8.40;;
17398;SDS011;8817;48.170;8.592;2022-09-01T00:43:36;13.70;;;8.43;;
17398;SDS011;8817;48.170;8.592;2022-09-01T00:46:05;14.00;;;8.10;;
17398;SDS011;8817;48.170;8.592;2022-09-01T00:48:35;14.20;;;8.73;;
17398;SDS011;8817;48.170;8.592;2022-09-01T00:51:04;12.52;;;8.23;;
17398;SDS011;8817;48.170;8.592;2022-09-01T00:53:33;13.00;;;8.63;;
17398;SDS011;8817;48.170;8.592;2022-09-01T00:56:01;13.63;;;7.90;;
17398;SDS011;8817;48.170;8.592;2022-09-01T00:58:29;11.45;;;8.07;;
17398;SDS011;8817;48.170;8.592;2022-09-01T01:00:57;12.90;;;8.70;;
17398;SDS011;8817;48.170;8.592;2022-09-01T01:03:24;11.35;;;7.63;;
17398;SDS011;8817;48.170;8.592;2022-09-01T01:05:53;12.00;;;8.25;;
17398;SDS011;8817;48.170;8.592;2022-09-01T01:08:24;10.82;;;7.30;;
17398;SDS011;8817;48.170;8.592;2022-09-01T01:10:58;10.05;;;7.70;;
17398;SDS011;8817;48.170;8.592;2022-09-01T01:13:26;10.48;;;7.70;;
17398;SDS011;8817;48.170;8.592;2022-09-01T01:15:56;10.23;;;7.68;;
17398;SDS011;8817;48.170;8.592;2022-09-01T01:18:24;10.80;;;7.47;;
17398;SDS011;8817;48.170;8.592;2022-09-01T01:20:58;10.00;;;7.70;;
17398;SDS011;8817;48.170;8.592;2022-09-01T01:23:47;10.52;;;7.60;;
17398;SDS011;8817;48.170;8.592;2022-09-01T01:26:22;11.18;;;7.47;;
17398;SDS011;8817;48.170;8.592;2022-09-01T01:28:49;11.35;;;7.88;;
17398;SDS011;8817;48.170;8.592;2022-09-01T01:31:19;11.00;;;7.25;;
17398;SDS011;8817;48.170;8.592;2022-09-01T01:33:48;10.57;;;7.55;;
17398;SDS011;8817;48.170;8.592;2022-09-01T01:36:22;11.52;;;8.18;;
17398;SDS011;8817;48.170;8.592;2022-09-01T01:38:57;10.70;;;7.72;;
17398;SDS011;8817;48.170;8.592;2022-09-01T01:41:28;11.50;;;7.55;;
17398;SDS011;8817;48.170;8.592;2022-09-01T01:43:56;10.00;;;7.57;;
17398;SDS011;8817;48.170;8.592;2022-09-01T01:46:24;11.77;;;8.13;;
17398;SDS011;8817;48.170;8.592;2022-09-01T01:48:51;16.45;;;8.07;;
17398;SDS011;8817;48.170;8.592;2022-09-01T01:51:20;12.52;;;7.53;;
17398;SDS011;8817;48.170;8.592;2022-09-01T01:53:51;19.90;;;7.60;;
17398;SDS011;8817;48.170;8.592;2022-09-01T01:56:20;11.10;;;7.75;;
17398;SDS011;8817;48.170;8.592;2022-09-01T01:58:51;12.57;;;7.32;;
17398;SDS011;8817;48.170;8.592;2022-09-01T02:01:20;10.18;;;6.93;;
17398;SDS011;8817;48.170;8.592;2022-09-01T02:03:48;8.77;;;7.10;;
17398;SDS011;8817;48.170;8.592;2022-09-01T02:06:19;9.38;;;7.30;;
17398;SDS011;8817;48.170;8.592;2022-09-01T02:08:48;9.05;;;6.78;;
17398;SDS011;8817;48.170;8.592;2022-09-01T02:11:16;10.55;;;7.35;;
17398;SDS011;8817;48.170;8.592;2022-09-01T02:13:43;10.18;;;6.82;;
17398;SDS011;8817;48.170;8.592;2022-09-01T02:16:12;10.00;;;6.82;;
17398;SDS011;8817;48.170;8.592;2022-09-01T02:18:40;12.05;;;7.00;;
17398;SDS011;8817;48.170;8.592;2022-09-01T02:21:12;9.05;;;7.22;;
17398;SDS011;8817;48.170;8.592;2022-09-01T02:23:44;10.15;;;6.85;;
17398;SDS011;8817;48.170;8.592;2022-09-01T02:26:13;8.05;;;6.53;;
17398;SDS011;8817;48.170;8.592;2022-09-01T02:28:43;7.72;;;6.65;;
17398;SDS011;8817;48.170;8.592;2022-09-01T02:31:15;8.27;;;6.90;;
17398;SDS011;8817;48.170;8.592;2022-09-01T02:33:45;8.98;;;6.88;;
17398;SDS011;8817;48.170;8.592;2022-09-01T02:36:13;9.00;;;6.90;;
17398;SDS011;8817;48.170;8.592;2022-09-01T02:38:43;9.02;;;6.82;;
17398;SDS011;8817;48.170;8.592;2022-09-01T02:41:13;8.02;;;6.43;;
17398;SDS011;8817;48.170;8.592;2022-09-01T02:43:48;7.18;;;6.43;;
17398;SDS011;8817;48.170;8.592;2022-09-01T02:46:16;8.95;;;6.85;;
17398;SDS011;8817;48.170;8.592;2022-09-01T02:48:47;8.05;;;6.55;;
17398;SDS011;8817;48.170;8.592;2022-09-01T02:51:16;8.52;;;6.47;;
17398;SDS011;8817;48.170;8.592;2022-09-01T02:53:46;7.50;;;6.60;;
17398;SDS011;8817;48.170;8.592;2022-09-01T02:56:16;7.18;;;6.15;;
17398;SDS011;8817;48.170;8.592;2022-09-01T02:58:47;6.32;;;5.72;;
17398;SDS011;8817;48.170;8.592;2022-09-01T03:01:16;6.68;;;5.65;;
17398;SDS011;8817;48.170;8.592;2022-09-01T03:03:49;6.13;;;5.53;;
17398;SDS011;8817;48.170;8.592;2022-09-01T03:06:17;7.22;;;6.15;;
17398;SDS011;8817;48.170;8.592;2022-09-01T03:08:48;7.55;;;6.40;;
17398;SDS011;8817;48.170;8.592;2022-09-01T03:11:16;6.57;;;5.90;;
17398;SDS011;8817;48.170;8.592;2022-09-01T03:13:44;9.32;;;6.07;;
17398;SDS011;8817;48.170;8.592;2022-09-01T03:16:11;8.60;;;5.88;;
17398;SDS011;8817;48.170;8.592;2022-09-01T03:18:39;8.30;;;6.18;;
17398;SDS011;8817;48.170;8.592;2022-09-01T03:21:07;6.85;;;5.85;;
17398;SDS011;8817;48.170;8.592;2022-09-01T03:23:40;8.57;;;5.88;;
17398;SDS011;8817;48.170;8.592;2022-09-01T03:26:07;7.28;;;6.20;;
17398;SDS011;8817;48.170;8.592;2022-09-01T03:28:34;9.10;;;6.00;;
17398;SDS011;8817;48.170;8.592;2022-09-01T03:31:03;9.20;;;5.90;;
17398;SDS011;8817;48.170;8.592;2022-09-01T03:33:30;6.45;;;5.78;;
17398;SDS011;8817;48.170;8.592;2022-09-01T03:35:59;6.45;;;5.72;;
17398;SDS011;8817;48.170;8.592;2022-09-01T03:38:26;7.50;;;5.85;;
17398;SDS011;8817;48.170;8.592;2022-09-01T03:40:54;10.35;;;6.40;;
17398;SDS011;8817;48.170;8.592;2022-09-01T03:43:24;12.10;;;7.18;;
17398;SDS011;8817;48.170;8.592;2022-09-01T03:45:53;9.00;;;6.50;;
17398;SDS011;8817;48.170;8.592;2022-09-01T03:48:21;9.15;;;6.72;;
17398;SDS011;8817;48.170;8.592;2022-09-01T03:50:51;14.38;;;8.07;;
17398;SDS011;8817;48.170;8.592;2022-09-01T03:53:21;16.33;;;8.73;;
17398;SDS011;8817;48.170;8.592;2022-09-01T03:55:51;8.82;;;6.90;;
17398;SDS011;8817;48.170;8.592;2022-09-01T03:58:24;6.57;;;5.85;;
17398;SDS011;8817;48.170;8.592;2022-09-01T04:00:52;7.77;;;6.33;;
17398;SDS011;8817;48.170;8.592;2022-09-01T04:03:21;10.13;;;6.32;;
17398;SDS011;8817;48.170;8.592;2022-09-01T04:05:49;7.43;;;6.60;;
17398;SDS011;8817;48.170;8.592;2022-09-01T04:08:18;7.97;;;6.33;;
17398;SDS011;8817;48.170;8.592;2022-09-01T04:10:53;7.60;;;6.38;;
17398;SDS011;8817;48.170;8.592;2022-09-01T04:13:22;7.75;;;6.35;;
17398;SDS011;8817;48.170;8.592;2022-09-01T04:15:51;8.93;;;7.10;;
17398;SDS011;8817;48.170;8.592;2022-09-01T04:18:18;8.23;;;6.80;;
17398;SDS011;8817;48.170;8.592;2022-09-01T04:20:45;9.13;;;7.32;;
17398;SDS011;8817;48.170;8.592;2022-09-01T04:23:17;9.55;;;6.80;;
17398;SDS011;8817;48.170;8.592;2022-09-01T04:25:52;8.48;;;6.78;;
17398;SDS011;8817;48.170;8.592;2022-09-01T04:28:21;7.15;;;6.45;;
17398;SDS011;8817;48.170;8.592;2022-09-01T04:30:54;8.85;;;6.85;;
17398;SDS011;8817;48.170;8.592;2022-09-01T04:33:23;7.55;;;6.75;;
17398;SDS011;8817;48.170;8.592;2022-09-01T04:35:51;7.55;;;6.50;;
17398;SDS011;8817;48.170;8.592;2022-09-01T04:38:21;7.72;;;6.45;;
17398;SDS011;8817;48.170;8.592;2022-09-01T04:40:49;7.13;;;6.25;;
17398;SDS011;8817;48.170;8.592;2022-09-01T04:43:21;10.68;;;7.15;;
17398;SDS011;8817;48.170;8.592;2022-09-01T04:45:48;7.00;;;6.30;;
17398;SDS011;8817;48.170;8.592;2022-09-01T04:48:16;8.40;;;7.07;;
17398;SDS011;8817;48.170;8.592;2022-09-01T04:50:46;6.95;;;6.25;;
17398;SDS011;8817;48.170;8.592;2022-09-01T04:53:13;7.40;;;6.60;;
17398;SDS011;8817;48.170;8.592;2022-09-01T04:55:42;7.50;;;6.50;;
17398;SDS011;8817;48.170;8.592;2022-09-01T04:58:12;8.02;;;6.50;;
17398;SDS011;8817;48.170;8.592;2022-09-01T05:00:42;7.93;;;6.25;;
17398;SDS011;8817;48.170;8.592;2022-09-01T05:03:12;7.22;;;6.53;;
17398;SDS011;8817;48.170;8.592;2022-09-01T05:05:45;7.15;;;6.45;;
17398;SDS011;8817;48.170;8.592;2022-09-01T05:08:13;7.20;;;6.50;;
17398;SDS011;8817;48.170;8.592;2022-09-01T05:10:42;8.40;;;6.93;;
17398;SDS011;8817;48.170;8.592;2022-09-01T05:13:13;6.95;;;6.25;;
17398;SDS011;8817;48.170;8.592;2022-09-01T05:15:41;7.32;;;6.15;;
17398;SDS011;8817;48.170;8.592;2022-09-01T05:18:11;6.88;;;6.28;;
17398;SDS011;8817;48.170;8.592;2022-09-01T05:20:40;7.50;;;6.57;;
17398;SDS011;8817;48.170;8.592;2022-09-01T05:23:09;9.40;;;6.65;;
17398;SDS011;8817;48.170;8.592;2022-09-01T05:25:41;8.05;;;7.00;;
17398;SDS011;8817;48.170;8.592;2022-09-01T05:28:10;9.18;;;6.90;;
17398;SDS011;8817;48.170;8.592;2022-09-01T05:30:39;7.07;;;6.38;;
17398;SDS011;8817;48.170;8.592;2022-09-01T05:33:07;8.27;;;6.57;;
17398;SDS011;8817;48.170;8.592;2022-09-01T05:35:35;8.20;;;6.65;;
17398;SDS011;8817;48.170;8.592;2022-09-01T05:38:07;7.25;;;6.47;;
17398;SDS011;8817;48.170;8.592;2022-09-01T05:40:37;7.63;;;6.80;;
17398;SDS011;8817;48.170;8.592;2022-09-01T05:43:05;7.47;;;6.30;;
17398;SDS011;8817;48.170;8.592;2022-09-01T05:45:36;8.05;;;6.90;;
17398;SDS011;8817;48.170;8.592;2022-09-01T05:48:07;7.00;;;6.30;;
17398;SDS011;8817;48.170;8.592;2022-09-01T05:50:37;13.55;;;6.53;;
17398;SDS011;8817;48.170;8.592;2022-09-01T05:53:07;7.88;;;7.07;;
17398;SDS011;8817;48.170;8.592;2022-09-01T05:55:40;9.05;;;6.80;;
17398;SDS011;8817;48.170;8.592;2022-09-01T05:58:09;7.55;;;6.60;;
17398;SDS011;8817;48.170;8.592;2022-09-01T06:00:39;7.70;;;6.43;;
17398;SDS011;8817;48.170;8.592;2022-09-01T06:03:08;6.97;;;6.28;;
17398;SDS011;8817;48.170;8.592;2022-09-01T06:05:35;8.05;;;6.63;;
17398;SDS011;8817;48.170;8.592;2022-09-01T06:08:04;7.82;;;7.03;;
17398;SDS011;8817;48.170;8.592;2022-09-01T06:10:32;8.52;;;7.15;;
17398;SDS011;8817;48.170;8.592;2022-09-01T06:13:01;9.10;;;7.32;;
17398;SDS011;8817;48.170;8.592;2022-09-01T06:15:30;8.02;;;6.90;;
17398;SDS011;8817;48.170;8.592;2022-09-01T06:17:58;7.80;;;7.00;;
17398;SDS011;8817;48.170;8.592;2022-09-01T06:20:25;7.88;;;7.07;;
17398;SDS011;8817;48.170;8.592;2022-09-01T06:22:54;7.93;;;7.13;;
17398;SDS011;8817;48.170;8.592;2022-09-01T06:25:21;8.05;;;7.15;;
17398;SDS011;8817;48.170;8.592;2022-09-01T06:27:50;9.60;;;7.28;;
17398;SDS011;8817;48.170;8.592;2022-09-01T06:30:18;8.45;;;7.40;;
17398;SDS011;8817;48.170;8.592;2022-09-01T06:32:47;8.02;;;6.90;;
17398;SDS011;8817;48.170;8.592;2022-09-01T06:35:17;8.02;;;7.18;;
17398;SDS011;8817;48.170;8.592;2022-09-01T06:37:44;7.78;;;6.97;;
17398;SDS011;8817;48.170;8.592;2022-09-01T06:40:13;7.95;;;6.90;;
17398;SDS011;8817;48.170;8.592;2022-09-01T06:42:42;8.00;;;7.20;;
17398;SDS011;8817;48.170;8.592;2022-09-01T06:45:11;8.20;;;6.97;;
17398;SDS011;8817;48.170;8.592;2022-09-01T06:47:39;9.93;;;6.70;;
17398;SDS011;8817;48.170;8.592;2022-09-01T06:50:08;11.60;;;7.22;;
17398;SDS011;8817;48.170;8.592;2022-09-01T06:52:36;8.05;;;7.20;;
17398;SDS011;8817;48.170;8.592;2022-09-01T06:55:04;8.40;;;6.78;;
17398;SDS011;8817;48.170;8.592;2022-09-01T06:57:31;6.95;;;6.20;;
17398;SDS011;8817;48.170;8.592;2022-09-01T07:00:00;7.45;;;6.68;;
17398;SDS011;8817;48.170;8.592;2022-09-01T07:02:39;7.00;;;6.40;;
17398;SDS011;8817;48.170;8.592;2022-09-01T07:05:08;7.60;;;6.90;;
17398;SDS011;8817;48.170;8.592;2022-09-01T07:07:37;7.43;;;6.47;;
17398;SDS011;8817;48.170;8.592;2022-09-01T07:10:05;7.53;;;6.82;;
17398;SDS011;8817;48.170;8.592;2022-09-01T07:12:32;7.43;;;6.72;;
17398;SDS011;8817;48.170;8.592;2022-09-01T07:14:59;7.40;;;6.63;;
17398;SDS011;8817;48.170;8.592;2022-09-01T07:17:26;7.40;;;6.70;;
17398;SDS011;8817;48.170;8.592;2022-09-01T07:19:54;6.80;;;6.20;;
17398;SDS011;8817;48.170;8.592;2022-09-01T07:22:22;7.20;;;6.50;;
17398;SDS011;8817;48.170;8.592;2022-09-01T07:24:51;9.00;;;7.40;;
17398;SDS011;8817;48.170;8.592;2022-09-01T07:27:21;7.80;;;6.80;;
17398;SDS011;8817;48.170;8.592;2022-09-01T07:29:52;7.88;;;6.60;;
17398;SDS011;8817;48.170;8.592;2022-09-01T07:32:20;7.07;;;6.47;;
17398;SDS011;8817;48.170;8.592;2022-09-01T07:34:47;7.80;;;6.88;;
17398;SDS011;8817;48.170;8.592;2022-09-01T07:37:14;8.75;;;7.28;;
17398;SDS011;8817;48.170;8.592;2022-09-01T07:39:42;8.70;;;7.07;;
17398;SDS011;8817;48.170;8.592;2022-09-01T07:42:11;9.18;;;7.45;;
17398;SDS011;8817;48.170;8.592;2022-09-01T07:44:41;8.35;;;6.72;;
17398;SDS011;8817;48.170;8.592;2022-09-01T07:47:09;7.60;;;6.53;;
17398;SDS011;8817;48.170;8.592;2022-09-01T07:49:38;11.77;;;7.13;;
17398;SDS011;8817;48.170;8.592;2022-09-01T07:52:05;7.43;;;6.60;;
17398;SDS011;8817;48.170;8.592;2022-09-01T07:54:32;7.40;;;6.60;;
17398;SDS011;8817;48.170;8.592;2022-09-01T07:57:01;7.38;;;6.20;;
17398;SDS011;8817;48.170;8.592;2022-09-01T07:59:30;6.90;;;6.05;;
17398;SDS011;8817;48.170;8.592;2022-09-01T08:01:57;6.90;;;6.20;;
17398;SDS011;8817;48.170;8.592;2022-09-01T08:04:25;7.68;;;6.55;;
17398;SDS011;8817;48.170;8.592;2022-09-01T08:06:52;6.47;;;5.88;;
17398;SDS011;8817;48.170;8.592;2022-09-01T08:09:19;7.15;;;6.05;;
17398;SDS011;8817;48.170;8.592;2022-09-01T08:11:46;7.47;;;6.68;;
17398;SDS011;8817;48.170;8.592;2022-09-01T08:14:13;6.80;;;6.18;;
17398;SDS011;8817;48.170;8.592;2022-09-01T08:16:42;6.60;;;6.03;;
17398;SDS011;8817;48.170;8.592;2022-09-01T08:19:09;6.93;;;6.03;;
17398;SDS011;8817;48.170;8.592;2022-09-01T08:21:36;6.57;;;5.97;;
17398;SDS011;8817;48.170;8.592;2022-09-01T08:24:04;6.70;;;6.10;;
17398;SDS011;8817;48.170;8.592;2022-09-01T08:26:30;7.40;;;6.38;;
17398;SDS011;8817;48.170;8.592;2022-09-01T08:28:57;6.35;;;5.78;;
17398;SDS011;8817;48.170;8.592;2022-09-01T08:31:24;6.45;;;5.93;;
17398;SDS011;8817;48.170;8.592;2022-09-01T08:33:53;6.05;;;5.55;;
17398;SDS011;8817;48.170;8.592;2022-09-01T08:36:20;7.32;;;6.63;;
17398;SDS011;8817;48.170;8.592;2022-09-01T08:38:47;7.82;;;6.20;;
17398;SDS011;8817;48.170;8.592;2022-09-01T08:41:16;7.05;;;6.35;;
17398;SDS011;8817;48.170;8.592;2022-09-01T08:43:57;6.25;;;5.72;;
17398;SDS011;8817;48.170;8.592;2022-09-01T08:46:31;6.22;;;5.72;;
17398;SDS011;8817;48.170;8.592;2022-09-01T08:49:03;6.82;;;6.22;;
17398;SDS011;8817;48.170;8.592;2022-09-01T08:51:35;6.82;;;5.80;;
17398;SDS011;8817;48.170;8.592;2022-09-01T08:54:12;6.95;;;6.35;;
17398;SDS011;8817;48.170;8.592;2022-09-01T08:56:46;7.28;;;6.57;;
17398;SDS011;8817;48.170;8.592;2022-09-01T08:59:15;6.40;;;5.80;;
17398;SDS011;8817;48.170;8.592;2022-09-01T09:01:43;6.40;;;5.75;;
17398;SDS011;8817;48.170;8.592;2022-09-01T09:04:25;6.10;;;5.60;;
17398;SDS011;8817;48.170;8.592;2022-09-01T09:07:06;6.10;;;5.60;;
17398;SDS011;8817;48.170;8.592;2022-09-01T09:09:41;7.45;;;6.20;;
17398;SDS011;8817;48.170;8.592;2022-09-01T09:12:18;6.45;;;5.85;;
17398;SDS011;8817;48.170;8.592;2022-09-01T09:15:00;7.95;;;5.78;;
17398;SDS011;8817;48.170;8.592;2022-09-01T09:17:44;6.60;;;5.90;;
17398;SDS011;8817;48.170;8.592;2022-09-01T09:20:18;6.80;;;6.20;;
17398;SDS011;8817;48.170;8.592;2022-09-01T09:22:46;5.85;;;5.45;;
17398;SDS011;8817;48.170;8.592;2022-09-01T09:25:15;7.10;;;5.55;;
17398;SDS011;8817;48.170;8.592;2022-09-01T09:27:43;5.68;;;5.28;;
17398;SDS011;8817;48.170;8.592;2022-09-01T09:30:12;5.90;;;5.40;;
17398;SDS011;8817;48.170;8.592;2022-09-01T09:32:47;6.60;;;6.00;;
17398;SDS011;8817;48.170;8.592;2022-09-01T09:35:22;7.18;;;6.30;;
17398;SDS011;8817;48.170;8.592;2022-09-01T09:37:52;6.25;;;5.75;;
17398;SDS011;8817;48.170;8.592;2022-09-01T09:40:20;8.70;;;6.63;;
17398;SDS011;8817;48.170;8.592;2022-09-01T09:45:32;6.40;;;5.88;;
17398;SDS011;8817;48.170;8.592;2022-09-01T09:48:06;6.15;;;5.65;;
17398;SDS011;8817;48.170;8.592;2022-09-01T09:50:37;6.57;;;5.72;;
17398;SDS011;8817;48.170;8.592;2022-09-01T09:53:12;6.80;;;6.30;;
17398;SDS011;8817;48.170;8.592;2022-09-01T09:55:56;6.65;;;6.13;;
17398;SDS011;8817;48.170;8.592;2022-09-01T09:58:28;5.35;;;5.00;;
17398;SDS011;8817;48.170;8.592;2022-09-01T10:01:01;6.72;;;6.13;;
17398;SDS011;8817;48.170;8.592;2022-09-01T10:03:40;6.47;;;5.95;;
17398;SDS011;8817;48.170;8.592;2022-09-01T10:06:12;8.70;;;6.90;;
17398;SDS011;8817;48.170;8.592;2022-09-01T10:08:54;6.60;;;6.05;;
17398;SDS011;8817;48.170;8.592;2022-09-01T10:11:26;5.82;;;5.43;;
17398;SDS011;8817;48.170;8.592;2022-09-01T10:13:55;6.70;;;6.10;;
17398;SDS011;8817;48.170;8.592;2022-09-01T10:16:24;6.72;;;6.15;;
17398;SDS011;8817;48.170;8.592;2022-09-01T10:18:55;6.10;;;5.60;;
17398;SDS011;8817;48.170;8.592;2022-09-01T10:21:33;6.60;;;5.95;;
17398;SDS011;8817;48.170;8.592;2022-09-01T10:24:08;5.95;;;5.55;;
17398;SDS011;8817;48.170;8.592;2022-09-01T10:26:40;6.10;;;5.70;;
17398;SDS011;8817;48.170;8.592;2022-09-01T10:29:12;7.20;;;6.60;;
17398;SDS011;8817;48.170;8.592;2022-09-01T10:31:42;6.43;;;6.03;;
17398;SDS011;8817;48.170;8.592;2022-09-01T10:34:11;6.70;;;6.20;;
17398;SDS011;8817;48.170;8.592;2022-09-01T10:36:42;6.70;;;6.10;;
17398;SDS011;8817;48.170;8.592;2022-09-01T10:39:12;6.28;;;5.78;;
17398;SDS011;8817;48.170;8.592;2022-09-01T10:41:44;7.03;;;6.47;;
17398;SDS011;8817;48.170;8.592;2022-09-01T10:44:17;6.43;;;6.03;;
17398;SDS011;8817;48.170;8.592;2022-09-01T10:46:46;6.45;;;6.05;;
17398;SDS011;8817;48.170;8.592;2022-09-01T10:49:18;7.28;;;6.78;;
17398;SDS011;8817;48.170;8.592;2022-09-01T10:51:49;7.35;;;6.65;;
17398;SDS011;8817;48.170;8.592;2022-09-01T10:57:27;6.63;;;6.20;;
17398;SDS011;8817;48.170;8.592;2022-09-01T11:00:15;5.40;;;5.03;;
17398;SDS011;8817;48.170;8.592;2022-09-01T11:06:30;5.70;;;5.35;;
17398;SDS011;8817;48.170;8.592;2022-09-01T11:09:25;6.20;;;5.78;;
17398;SDS011;8817;48.170;8.592;2022-09-01T11:14:49;6.20;;;5.80;;
17398;SDS011;8817;48.170;8.592;2022-09-01T11:17:19;5.72;;;5.43;;
17398;SDS011;8817;48.170;8.592;2022-09-01T11:19:55;5.82;;;5.53;;
17398;SDS011;8817;48.170;8.592;2022-09-01T11:22:27;5.20;;;5.00;;
17398;SDS011;8817;48.170;8.592;2022-09-01T11:25:06;4.80;;;4.60;;
17398;SDS011;8817;48.170;8.592;2022-09-01T11:27:55;5.68;;;5.38;;
17398;SDS011;8817;48.170;8.592;2022-09-01T11:30:42;5.30;;;5.03;;
17398;SDS011;8817;48.170;8.592;2022-09-01T11:33:27;5.20;;;4.90;;
17398;SDS011;8817;48.170;8.592;2022-09-01T11:36:13;5.22;;;4.97;;
17398;SDS011;8817;48.170;8.592;2022-09-01T11:38:49;4.78;;;4.57;;
17398;SDS011;8817;48.170;8.592;2022-09-01T11:41:23;5.05;;;4.75;;
17398;SDS011;8817;48.170;8.592;2022-09-01T11:43:53;5.00;;;4.80;;
17398;SDS011;8817;48.170;8.592;2022-09-01T11:46:26;5.45;;;5.15;;
17398;SDS011;8817;48.170;8.592;2022-09-01T11:48:56;4.88;;;4.68;;
17398;SDS011;8817;48.170;8.592;2022-09-01T11:51:27;5.80;;;5.50;;
17398;SDS011;8817;48.170;8.592;2022-09-01T11:54:03;5.30;;;5.10;;
17398;SDS011;8817;48.170;8.592;2022-09-01T11:56:31;6.07;;;5.78;;
17398;SDS011;8817;48.170;8.592;2022-09-01T11:58:58;5.85;;;5.65;;
17398;SDS011;8817;48.170;8.592;2022-09-01T12:01:30;5.80;;;5.50;;
17398;SDS011;8817;48.170;8.592;2022-09-01T12:06:50;6.13;;;5.70;;
17398;SDS011;8817;48.170;8.592;2022-09-01T12:09:20;5.15;;;4.95;;
17398;SDS011;8817;48.170;8.592;2022-09-01T12:11:48;5.75;;;5.45;;
17398;SDS011;8817;48.170;8.592;2022-09-01T12:14:20;6.45;;;6.15;;
17398;SDS011;8817;48.170;8.592;2022-09-01T12:16:55;5.82;;;5.53;;
17398;SDS011;8817;48.170;8.592;2022-09-01T12:19:25;5.43;;;5.15;;
17398;SDS011;8817;48.170;8.592;2022-09-01T12:22:01;6.00;;;5.60;;
17398;SDS011;8817;48.170;8.592;2022-09-01T12:24:30;6.38;;;5.88;;
17398;SDS011;8817;48.170;8.592;2022-09-01T12:27:02;5.72;;;5.32;;
17398;SDS011;8817;48.170;8.592;2022-09-01T12:29:29;5.30;;;5.10;;
17398;SDS011;8817;48.170;8.592;2022-09-01T12:31:57;6.03;;;5.57;;
17398;SDS011;8817;48.170;8.592;2022-09-01T12:34:27;5.55;;;5.28;;
17398;SDS011;8817;48.170;8.592;2022-09-01T12:37:04;6.30;;;5.90;;
17398;SDS011;8817;48.170;8.592;2022-09-01T12:39:45;6.30;;;5.93;;
17398;SDS011;8817;48.170;8.592;2022-09-01T12:42:23;5.53;;;5.22;;
17398;SDS011;8817;48.170;8.592;2022-09-01T12:44:54;5.30;;;5.03;;
17398;SDS011;8817;48.170;8.592;2022-09-01T12:50:35;5.50;;;5.20;;
17398;SDS011;8817;48.170;8.592;2022-09-01T12:53:16;6.03;;;5.72;;
17398;SDS011;8817;48.170;8.592;2022-09-01T12:56:15;5.35;;;5.05;;
17398;SDS011;8817;48.170;8.592;2022-09-01T12:58:49;6.60;;;6.20;;
17398;SDS011;8817;48.170;8.592;2022-09-01T13:01:26;6.30;;;6.00;;
17398;SDS011;8817;48.170;8.592;2022-09-01T13:04:06;6.10;;;5.80;;
17398;SDS011;8817;48.170;8.592;2022-09-01T13:06:51;5.43;;;5.13;;
17398;SDS011;8817;48.170;8.592;2022-09-01T13:09:20;5.82;;;5.55;;
17398;SDS011;8817;48.170;8.592;2022-09-01T13:11:47;6.30;;;5.80;;
17398;SDS011;8817;48.170;8.592;2022-09-01T13:14:15;5.90;;;5.60;;
17398;SDS011;8817;48.170;8.592;2022-09-01T13:16:43;5.70;;;5.40;;
17398;SDS011;8817;48.170;8.592;2022-09-01T13:19:10;5.75;;;5.47;;
17398;SDS011;8817;48.170;8.592;2022-09-01T13:21:37;6.00;;;5.70;;
17398;SDS011;8817;48.170;8.592;2022-09-01T13:24:05;5.47;;;5.20;;
17398;SDS011;8817;48.170;8.592;2022-09-01T13:26:33;5.72;;;5.43;;
17398;SDS011;8817;48.170;8.592;2022-09-01T13:29:00;6.10;;;5.80;;
17398;SDS011;8817;48.170;8.592;2022-09-01T13:31:28;5.82;;;5.53;;
17398;SDS011;8817;48.170;8.592;2022-09-01T13:33:56;6.03;;;5.72;;
17398;SDS011;8817;48.170;8.592;2022-09-01T13:36:23;5.90;;;5.50;;
17398;SDS011;8817;48.170;8.592;2022-09-01T13:38:50;5.20;;;4.90;;
17398;SDS011;8817;48.170;8.592;2022-09-01T13:41:17;5.60;;;5.30;;
17398;SDS011;8817;48.170;8.592;2022-09-01T13:43:44;5.22;;;5.00;;
17398;SDS011;8817;48.170;8.592;2022-09-01T13:46:12;5.43;;;5.13;;
17398;SDS011;8817;48.170;8.592;2022-09-01T13:48:40;5.13;;;4.88;;
17398;SDS011;8817;48.170;8.592;2022-09-01T13:51:07;5.38;;;5.13;;
17398;SDS011;8817;48.170;8.592;2022-09-01T13:53:35;6.00;;;5.60;;
17398;SDS011;8817;48.170;8.592;2022-09-01T13:56:02;6.38;;;5.90;;
17398;SDS011;8817;48.170;8.592;2022-09-01T13:58:29;5.53;;;5.22;;
17398;SDS011;8817;48.170;8.592;2022-09-01T14:00:56;5.45;;;5.15;;
17398;SDS011;8817;48.170;8.592;2022-09-01T14:03:24;5.63;;;5.30;;
17398;SDS011;8817;48.170;8.592;2022-09-01T14:05:52;5.13;;;4.88;;
17398;SDS011;8817;48.170;8.592;2022-09-01T14:08:19;5.80;;;5.50;;
17398;SDS011;8817;48.170;8.592;2022-09-01T14:10:48;5.80;;;5.40;;
17398;SDS011;8817;48.170;8.592;2022-09-01T14:13:17;5.90;;;5.30;;
17398;SDS011;8817;48.170;8.592;2022-09-01T14:15:45;5.72;;;5.43;;
17398;SDS011;8817;48.170;8.592;2022-09-01T14:18:13;5.60;;;5.30;;
17398;SDS011;8817;48.170;8.592;2022-09-01T14:20:42;5.80;;;5.40;;
17398;SDS011;8817;48.170;8.592;2022-09-01T14:23:11;5.55;;;5.25;;
17398;SDS011;8817;48.170;8.592;2022-09-01T14:25:43;5.60;;;5.10;;
17398;SDS011;8817;48.170;8.592;2022-09-01T14:28:11;5.22;;;4.93;;
17398;SDS011;8817;48.170;8.592;2022-09-01T14:30:39;5.40;;;5.10;;
17398;SDS011;8817;48.170;8.592;2022-09-01T14:33:07;4.93;;;4.72;;
17398;SDS011;8817;48.170;8.592;2022-09-01T14:35:36;5.25;;;5.00;;
17398;SDS011;8817;48.170;8.592;2022-09-01T14:38:04;5.80;;;5.50;;
17398;SDS011;8817;48.170;8.592;2022-09-01T14:40:34;5.32;;;5.03;;
17398;SDS011;8817;48.170;8.592;2022-09-01T14:43:03;5.25;;;4.90;;
17398;SDS011;8817;48.170;8.592;2022-09-01T14:45:39;5.53;;;5.22;;
17398;SDS011;8817;48.170;8.592;2022-09-01T14:48:08;5.47;;;5.18;;
17398;SDS011;8817;48.170;8.592;2022-09-01T14:50:38;5.13;;;4.93;;
17398;SDS011;8817;48.170;8.592;2022-09-01T14:53:05;4.90;;;4.65;;
17398;SDS011;8817;48.170;8.592;2022-09-01T14:55:33;5.40;;;5.10;;
17398;SDS011;8817;48.170;8.592;2022-09-01T14:58:00;5.70;;;5.40;;
17398;SDS011;8817;48.170;8.592;2022-09-01T15:00:28;5.50;;;5.25;;
17398;SDS011;8817;48.170;8.592;2022-09-01T15:02:56;5.07;;;4.88;;
17398;SDS011;8817;48.170;8.592;2022-09-01T15:05:23;5.55;;;5.25;;
17398;SDS011;8817;48.170;8.592;2022-09-01T15:07:51;5.55;;;5.15;;
17398;SDS011;8817;48.170;8.592;2022-09-01T15:10:19;5.32;;;4.93;;
17398;SDS011;8817;48.170;8.592;2022-09-01T15:12:49;5.45;;;5.15;;
17398;SDS011;8817;48.170;8.592;2022-09-01T15:15:17;5.00;;;4.80;;
17398;SDS011;8817;48.170;8.592;2022-09-01T15:17:44;5.28;;;4.97;;
17398;SDS011;8817;48.170;8.592;2022-09-01T15:20:11;5.25;;;4.95;;
17398;SDS011;8817;48.170;8.592;2022-09-01T15:22:55;5.15;;;4.85;;
17398;SDS011;8817;48.170;8.592;2022-09-01T15:25:22;5.30;;;5.10;;
17398;SDS011;8817;48.170;8.592;2022-09-01T15:27:51;5.05;;;4.85;;
17398;SDS011;8817;48.170;8.592;2022-09-01T15:30:18;5.40;;;5.10;;
17398;SDS011;8817;48.170;8.592;2022-09-01T15:32:46;5.35;;;5.03;;
17398;SDS011;8817;48.170;8.592;2022-09-01T15:35:14;5.28;;;4.97;;